Philadelphia Express — WDC6736 — position and weather

sailwx.info

Track history (hours):
 
Tides and Currents Weather Stations Pressure Air Temp Water Temp Dewpoint Dewpoint Depression Visibility Wind Speed Wind Dir Waves Ship Positions

Philadelphia Express

Owner: Marine Transport Management, Inc., Jacksonville, FL. More information available from US FCC via Universal Licensing System and Coast Guard Vessel Documentation Center.

Last reported at 2017-Oct-18 07:30 UTC. Time now 2017-Oct-18 07:57 UTC.
Position N 53°53' E 007°41'.

MMSI: 338781000.

Date/timePositionNaut miles runAvg speedWind from/ knotsBaromVisibWave heightAir tempDewpointWater temp
2017-Oct-18 07:30N 53°53' E 007°41'7411.1
2017-Oct-18 00:49N 53°37' E 005°39'3 9.6
2017-Oct-18 00:29N 53°36' E 005°34'4 9.5
2017-Oct-18 00:00N 53°35' E 005°27'5 9.4
2017-Oct-17 23:30N 53°33' E 005°19'5 9.6
2017-Oct-17 23:00N 53°31' E 005°11'5 9.8
2017-Oct-17 22:30N 53°29' E 005°04'5 9.8
2017-Oct-17 22:00N 53°27' E 004°57'510.0
2017-Oct-17 21:30N 53°25' E 004°49'5 9.4
2017-Oct-17 21:00N 53°22' E 004°42'5 9.6
2017-Oct-17 20:30N 53°18' E 004°38'5 9.7
2017-Oct-17 20:00N 53°14' E 004°35'5 9.7
2017-Oct-17 19:30N 53°10' E 004°31'5 9.8
2017-Oct-17 19:00N 53°05' E 004°27'5 9.9
2017-Oct-17 18:30N 53°01' E 004°24'5 9.9
2017-Oct-17 18:00N 52°56' E 004°20'510.2
2017-Oct-17 17:30N 52°52' E 004°16'510.5
2017-Oct-17 17:00N 52°47' E 004°11'610.9
2017-Oct-17 16:30N 52°43' E 004°06'611.2
2017-Oct-17 16:00N 52°39' E 003°60'611.4
2017-Oct-17 15:30N 52°35' E 003°53'510.8
2017-Oct-17 15:00N 52°32' E 003°45'611.6
2017-Oct-17 14:30N 52°28' E 003°39'611.8
2017-Oct-17 14:00N 52°24' E 003°32'611.9
2017-Oct-17 13:30N 52°19' E 003°26'612.1
2017-Oct-17 12:59N 52°15' E 003°19'713.7
2017-Oct-17 12:28N 52°09' E 003°11'715.0
2017-Oct-17 11:59N 52°03' E 003°05'914.8
2017-Oct-17 11:23N 51°54' E 003°06'513.3
2017-Oct-17 10:59N 51°49' E 003°10'5 9.9
2017-Oct-17 10:30N 51°45' E 003°14'611.4
2017-Oct-17 10:01N 51°40' E 003°12'713.9
2017-Oct-17 09:31N 51°33' E 003°10'714.2
2017-Oct-17 09:00N 51°28' E 003°01'510.2
2017-Oct-17 08:30N 51°24' E 003°06'713.1
2017-Oct-17 08:01N 51°25' E 003°16'713.4
2017-Oct-17 07:31N 51°25' E 003°27'510.7
2017-Oct-17 07:00N 51°26' E 003°36'5 9.4
2017-Oct-17 06:30N 51°24' E 003°43'713.3
2017-Oct-17 06:00N 51°21' E 003°52'714.0
2017-Oct-17 05:30N 51°26' E 003°59'612.1
2017-Oct-17 05:00N 51°22' E 004°06'5 9.3
2017-Oct-17 04:30N 51°22' E 004°14'2 4.7
2017-Oct-17 04:01N 51°20' E 004°17'0 0.0
2017-Oct-17 03:31N 51°20' E 004°17'0 0.0
2017-Oct-17 03:01N 51°20' E 004°17'0 0.0
2017-Oct-17 02:31N 51°20' E 004°17'0 0.0
2017-Oct-17 02:01N 51°20' E 004°17'0 0.0
2017-Oct-17 01:31N 51°20' E 004°17'0 0.0
2017-Oct-17 01:01N 51°20' E 004°17'0 0.0
2017-Oct-17 00:30N 51°20' E 004°17'0 0.0
2017-Oct-17 00:01N 51°20' E 004°17'0 0.0
2017-Oct-16 23:31N 51°20' E 004°17'0 0.0
2017-Oct-16 23:01N 51°20' E 004°17'0 0.0
2017-Oct-16 22:30N 51°20' E 004°17'0 0.0
2017-Oct-16 22:01N 51°20' E 004°17'0 0.0
2017-Oct-16 21:30N 51°20' E 004°17'0 0.0
2017-Oct-16 21:01N 51°20' E 004°17'0 0.0
2017-Oct-16 20:31N 51°20' E 004°17'0 0.0
2017-Oct-16 19:58N 51°20' E 004°17'0 0.0
2017-Oct-16 19:31N 51°20' E 004°17'0 0.0
2017-Oct-16 19:01N 51°20' E 004°17'0 0.0
2017-Oct-16 18:30N 51°20' E 004°17'0 0.0
2017-Oct-16 18:00N 51°20' E 004°17'0 0.0
2017-Oct-16 17:31N 51°20' E 004°17'0 0.0
2017-Oct-16 17:01N 51°20' E 004°17'0 0.0
2017-Oct-16 16:31N 51°20' E 004°17'0 0.0
2017-Oct-16 16:00N 51°20' E 004°17'0 0.0
2017-Oct-16 15:30N 51°20' E 004°17'0 0.0
2017-Oct-16 15:00N 51°20' E 004°17'0 0.0
2017-Oct-16 14:01N 51°20' E 004°17'0 0.0
2017-Oct-16 13:31N 51°20' E 004°17'0 0.0
2017-Oct-16 13:01N 51°20' E 004°17'0 0.0
2017-Oct-16 12:30N 51°20' E 004°17'0 0.0
2017-Oct-16 11:59N 51°20' E 004°17'0 0.0
2017-Oct-16 11:31N 51°20' E 004°17'0 0.0
2017-Oct-16 11:01N 51°20' E 004°17'0 0.0
2017-Oct-16 10:31N 51°20' E 004°17'0 0.0
2017-Oct-16 10:00N 51°20' E 004°17'0 0.0
2017-Oct-16 09:30N 51°20' E 004°17'0 0.0
2017-Oct-16 09:01N 51°20' E 004°17'0 0.0
2017-Oct-16 08:30N 51°20' E 004°17'0 0.0
2017-Oct-16 08:00N 51°20' E 004°17'0 0.0
2017-Oct-16 07:29N 51°20' E 004°17'0 0.0
2017-Oct-16 07:01N 51°20' E 004°17'0 0.0
2017-Oct-16 06:30N 51°20' E 004°17'0 0.0
2017-Oct-16 06:00N 51°20' E 004°17'0 0.0
2017-Oct-16 05:30N 51°20' E 004°17'0 0.0
2017-Oct-16 05:00N 51°20' E 004°17'0 0.0
2017-Oct-16 04:30N 51°20' E 004°17'0 0.0
2017-Oct-16 04:00N 51°20' E 004°17'0 0.0
2017-Oct-16 03:30N 51°20' E 004°17'0 0.0
2017-Oct-16 03:01N 51°20' E 004°17'0 0.0
2017-Oct-16 02:31N 51°20' E 004°17'0 0.0
2017-Oct-16 02:00N 51°20' E 004°17'0 0.0
2017-Oct-16 01:30N 51°20' E 004°17'0 0.0
2017-Oct-16 01:01N 51°20' E 004°17'0 0.0
2017-Oct-16 00:31N 51°20' E 004°17'0 0.0
2017-Oct-16 00:01N 51°20' E 004°17'0 0.0
2017-Oct-15 23:27N 51°20' E 004°17'0 0.7
2017-Oct-15 23:00N 51°20' E 004°16'4 8.9
2017-Oct-15 22:31N 51°24' E 004°12'612.3
2017-Oct-15 22:00N 51°24' E 004°02'4 8.0
2017-Oct-15 21:30N 51°22' E 003°56'714.4
2017-Oct-15 21:00N 51°22' E 003°44'611.6
2017-Oct-15 20:30N 51°26' E 003°38'713.4
2017-Oct-15 20:00N 51°25' E 003°27'1020.1
2017-Oct-15 19:31N 51°24' E 003°11'918.3
2017-Oct-15 19:00N 51°25' E 002°56'612.8
2017-Oct-15 18:30N 51°24' E 002°46'510.3
2017-Oct-15 18:00N 51°22' E 002°39'3 6.9
2017-Oct-15 17:30N 51°24' E 002°35'1 1.3
2017-Oct-15 17:00N 51°25' E 002°34'0 0.0
2017-Oct-15 16:27N 51°25' E 002°34'0 0.1
2017-Oct-15 16:00N 51°25' E 002°34'0 0.2
2017-Oct-15 15:30N 51°25' E 002°34'0 0.2
2017-Oct-15 14:45N 51°25' E 002°34'3 4.0
2017-Oct-15 14:00N 51°24' E 002°30'315.3 220 / 101019.810.8 20.014.917.0
2017-Oct-15 13:48N 51°25' E 002°34'0 0.1
2017-Oct-15 13:30N 51°25' E 002°34'0 0.0
2017-Oct-15 12:48N 51°25' E 002°34'0 0.0
2017-Oct-15 12:24N 51°25' E 002°34'0 0.0
2017-Oct-15 11:54N 51°25' E 002°34'0 0.0
2017-Oct-15 11:18N 51°25' E 002°34'0 0.0
2017-Oct-15 11:00N 51°25' E 002°34'0 0.0
2017-Oct-15 10:30N 51°25' E 002°34'0 0.0
2017-Oct-15 10:00N 51°25' E 002°34'0 0.0
2017-Oct-15 09:30N 51°25' E 002°35'0 0.0
2017-Oct-15 09:00N 51°25' E 002°34'0 0.0
2017-Oct-15 08:30N 51°25' E 002°34'0 0.0
2017-Oct-15 07:57N 51°25' E 002°34'0 0.1
2017-Oct-15 07:30N 51°25' E 002°34'0 0.0
2017-Oct-15 07:00N 51°25' E 002°34'0 0.3
2017-Oct-15 06:27N 51°25' E 002°34'0 0.2
2017-Oct-15 06:00N 51°25' E 002°34'0 0.1
2017-Oct-15 05:30N 51°25' E 002°34'0 0.0
2017-Oct-15 05:00N 51°25' E 002°34'0 0.0
2017-Oct-15 04:27N 51°25' E 002°34'0 0.0
2017-Oct-15 03:57N 51°25' E 002°34'0 0.0
2017-Oct-15 03:30N 51°25' E 002°34'0 0.0
2017-Oct-15 02:57N 51°25' E 002°34'0 0.0
2017-Oct-15 02:30N 51°25' E 002°34'0 0.1
2017-Oct-15 02:00N 51°25' E 002°34'0 0.1
2017-Oct-15 01:30N 51°25' E 002°34'0 0.1
2017-Oct-15 01:00N 51°25' E 002°34'0 0.1
2017-Oct-15 00:30N 51°25' E 002°34'0 0.0
2017-Oct-15 00:00N 51°25' E 002°34'0 0.0
2017-Oct-14 23:30N 51°25' E 002°34'0 0.1
2017-Oct-14 22:48N 51°25' E 002°34'0 0.0
2017-Oct-14 22:30N 51°25' E 002°34'0 0.0
2017-Oct-14 21:57N 51°25' E 002°34'0 0.0
2017-Oct-14 21:30N 51°25' E 002°34'0 0.0
2017-Oct-14 20:54N 51°25' E 002°34'0 0.0
2017-Oct-14 20:30N 51°25' E 002°34'0 0.0
2017-Oct-14 20:00N 51°25' E 002°34'0 0.0
2017-Oct-14 19:30N 51°25' E 002°34'0 0.0
2017-Oct-14 18:57N 51°25' E 002°35'0 0.1
2017-Oct-14 18:24N 51°25' E 002°35'0 0.2
2017-Oct-14 18:00N 51°25' E 002°34'0 0.2
2017-Oct-14 17:30N 51°25' E 002°34'0 0.1
2017-Oct-14 16:51N 51°25' E 002°34'0 0.0
2017-Oct-14 16:15N 51°25' E 002°34'0 0.0
2017-Oct-14 15:57N 51°25' E 002°34'0 0.0
2017-Oct-14 15:30N 51°25' E 002°34'0 0.1
2017-Oct-14 14:48N 51°25' E 002°34'0 0.4
2017-Oct-14 14:30N 51°25' E 002°34'0 0.3
2017-Oct-14 14:00N 51°25' E 002°34'0 0.2
2017-Oct-14 13:27N 51°25' E 002°35'0 0.0
2017-Oct-14 13:00N 51°25' E 002°35'0 0.2
2017-Oct-14 12:30N 51°25' E 002°35'1 1.1
2017-Oct-14 12:00N 51°25' E 002°35'4 8.8
2017-Oct-14 11:30N 51°22' E 002°30'713.8
2017-Oct-14 11:00N 51°19' E 002°20'714.3
2017-Oct-14 10:30N 51°16' E 002°10'714.5
2017-Oct-14 10:00N 51°12' E 001°60'714.6
2017-Oct-14 09:30N 51°09' E 001°50'918.1
2017-Oct-14 09:00N 51°02' E 001°40'1020.2
2017-Oct-14 08:30N 50°54' E 001°30'1020.0
2017-Oct-14 08:00N 50°45' E 001°24'1019.0
2017-Oct-14 07:27N 50°37' E 001°13'2118.7
2017-Oct-14 06:20N 50°26' E 000°45'1718.9
2017-Oct-14 05:25N 50°21' E 000°19'1719.4
2017-Oct-14 04:32N 50°16' W 000°07'219.7
2017-Oct-14 04:26N 50°15' W 000°09'1420.0
2017-Oct-14 03:44N 50°12' W 000°30'520.3
2017-Oct-14 03:30N 50°10' W 000°38'1020.6
2017-Oct-14 03:01N 50°07' W 000°53'1020.7
2017-Oct-14 02:30N 50°04' W 001°08'1121.1
2017-Oct-14 02:00N 50°02' W 001°24'1020.8
2017-Oct-14 01:31N 50°00' W 001°40'1020.7
2017-Oct-14 01:01N 49°59' W 001°56'1020.2
2017-Oct-14 00:30N 49°57' W 002°11'5 9.8
2017-Oct-14 00:00N 49°54' W 002°18'1043.4 200 / 141025.210.8 16.014.217.0
2017-Oct-13 23:46N 49°53' W 002°33'1019.2
2017-Oct-13 23:14N 49°50' W 002°48'419.1
2017-Oct-13 23:00N 49°49' W 002°55'1019.0
2017-Oct-13 22:30N 49°47' W 003°09'919.0
2017-Oct-13 22:00N 49°45' W 003°23'1118.6
2017-Oct-13 21:24N 49°45' W 003°41'718.8
2017-Oct-13 21:00N 49°44' W 003°52'1318.7
2017-Oct-13 20:18N 49°42' W 004°13'718.5
2017-Oct-13 19:55N 49°41' W 004°23'818.5
2017-Oct-13 19:29N 49°41' W 004°36'1318.5
2017-Oct-13 18:46N 49°39' W 004°56'518.5
2017-Oct-13 18:29N 49°39' W 005°04'1318.4
2017-Oct-13 17:47N 49°38' W 005°24'2618.4
2017-Oct-13 16:21N 49°38' W 006°05'3918.1
2017-Oct-13 14:12N 49°32' W 007°04'3516.0
2017-Oct-13 12:00N 49°18' W 007°54'6020.0 220 / 201021.1 5.4 17.017.017.0
2017-Oct-13 09:00N 49°06' W 009°24'8126.9 230 / 191019.5 2.2 17.015.317.0
2017-Oct-13 06:00N 48°48' W 011°24'9115.1 220 / 171017.610.8 17.015.317.0
2017-Oct-13 00:00N 48°24' W 013°36'5527.5 220 / 221015.2 5.4 17.017.017.0
2017-Oct-12 22:00N 48°06' W 014°54'6917.3 230 / 221014.2 2.2 18.016.317.0
2017-Oct-12 18:00N 47°54' W 016°36'11318.9 220 / 231012.6 5.4 18.915.719.0
2017-Oct-12 12:00N 47°24' W 019°18'6431.8 220 / 251010.8 5.4 17.017.017.0
2017-Oct-12 10:00N 47°06' W 020°48'35518.7 230 / 201009.6 2.2 18.018.017.0
2017-Oct-11 15:00N 45°36' W 029°06'17419.3 140 / 151009.510.8 18.016.317.0
2017-Oct-11 06:00N 44°54' W 033°06'5819.4 070 / 121012.710.8 17.915.719.0
2017-Oct-11 03:00N 44°36' W 034°24'5719.0 060 / 31013.810.8 18.014.619.0
2017-Oct-11 00:00N 44°24' W 035°42'12020.0 350 / 151016.0 5.4 17.013.519.0
2017-Oct-10 18:00N 43°54' W 038°24'11318.8 310 / 141014.810.8 20.015.819.0
2017-Oct-10 12:00N 43°24' W 040°54'6722.2 290 / 151017.010.8 20.016.723.0
2017-Oct-10 09:00N 43°12' W 042°24'6019.9 320 / 141017.110.8 19.418.325.0
2017-Oct-10 06:00N 42°54' W 043°42'6421.4 310 / 201017.6 19.513.425.0
2017-Oct-10 03:00N 42°36' W 045°06'6321.0 270 / 151019.210.8 21.019.422.0
2017-Oct-10 00:00N 42°24' W 046°30'15321.8 260 / 181022.0 5.4 20.018.424.0
2017-Oct-09 17:00N 41°42' W 049°48'10220.3 220 / 181023.710.8 23.019.922.0
2017-Oct-09 12:00N 41°18' W 052°00'13021.7 200 / 151025.0 5.4 20.016.718.0
2017-Oct-09 06:00N 40°48' W 054°48'1919.1 200 / 151024.810.8 22.020.526.0
2017-Oct-09 05:00N 40°42' W 055°12'32821.9 200 / 161024.910.8 22.020.524.0
2017-Oct-08 14:00N 39°18' W 062°06'   180 / 151024.310.8 27.021.026.0
Track history (hours):
 
Tides and Currents Weather Stations Pressure Air Temp Water Temp Dewpoint Dewpoint Depression Visibility Wind Speed Wind Dir Waves Ship Positions

Philadelphia Express

Owner: Marine Transport Management, Inc., Jacksonville, FL. More information available from US FCC via Universal Licensing System and Coast Guard Vessel Documentation Center.

Last reported at 2017-Oct-18 07:30 UTC. Time now 2017-Oct-18 07:57 UTC.
Position N 53°53' E 007°41'.

MMSI: 338781000.

Date/timePositionNaut miles runAvg speedWind from/ knotsBaromVisibWave heightAir tempDewpointWater temp
2017-Oct-18 07:30N 53°53' E 007°41'7411.1
2017-Oct-18 00:49N 53°37' E 005°39'3 9.6
2017-Oct-18 00:29N 53°36' E 005°34'4 9.5
2017-Oct-18 00:00N 53°35' E 005°27'5 9.4
2017-Oct-17 23:30N 53°33' E 005°19'5 9.6
2017-Oct-17 23:00N 53°31' E 005°11'5 9.8
2017-Oct-17 22:30N 53°29' E 005°04'5 9.8
2017-Oct-17 22:00N 53°27' E 004°57'510.0
2017-Oct-17 21:30N 53°25' E 004°49'5 9.4
2017-Oct-17 21:00N 53°22' E 004°42'5 9.6
2017-Oct-17 20:30N 53°18' E 004°38'5 9.7
2017-Oct-17 20:00N 53°14' E 004°35'5 9.7
2017-Oct-17 19:30N 53°10' E 004°31'5 9.8
2017-Oct-17 19:00N 53°05' E 004°27'5 9.9
2017-Oct-17 18:30N 53°01' E 004°24'5 9.9
2017-Oct-17 18:00N 52°56' E 004°20'510.2
2017-Oct-17 17:30N 52°52' E 004°16'510.5
2017-Oct-17 17:00N 52°47' E 004°11'610.9
2017-Oct-17 16:30N 52°43' E 004°06'611.2
2017-Oct-17 16:00N 52°39' E 003°60'611.4
2017-Oct-17 15:30N 52°35' E 003°53'510.8
2017-Oct-17 15:00N 52°32' E 003°45'611.6
2017-Oct-17 14:30N 52°28' E 003°39'611.8
2017-Oct-17 14:00N 52°24' E 003°32'611.9
2017-Oct-17 13:30N 52°19' E 003°26'612.1
2017-Oct-17 12:59N 52°15' E 003°19'713.7
2017-Oct-17 12:28N 52°09' E 003°11'715.0
2017-Oct-17 11:59N 52°03' E 003°05'914.8
2017-Oct-17 11:23N 51°54' E 003°06'513.3
2017-Oct-17 10:59N 51°49' E 003°10'5 9.9
2017-Oct-17 10:30N 51°45' E 003°14'611.4
2017-Oct-17 10:01N 51°40' E 003°12'713.9
2017-Oct-17 09:31N 51°33' E 003°10'714.2
2017-Oct-17 09:00N 51°28' E 003°01'510.2
2017-Oct-17 08:30N 51°24' E 003°06'713.1
2017-Oct-17 08:01N 51°25' E 003°16'713.4
2017-Oct-17 07:31N 51°25' E 003°27'510.7
2017-Oct-17 07:00N 51°26' E 003°36'5 9.4
2017-Oct-17 06:30N 51°24' E 003°43'713.3
2017-Oct-17 06:00N 51°21' E 003°52'714.0
2017-Oct-17 05:30N 51°26' E 003°59'612.1
2017-Oct-17 05:00N 51°22' E 004°06'5 9.3
2017-Oct-17 04:30N 51°22' E 004°14'2 4.7
2017-Oct-17 04:01N 51°20' E 004°17'0 0.0
2017-Oct-17 03:31N 51°20' E 004°17'0 0.0
2017-Oct-17 03:01N 51°20' E 004°17'0 0.0
2017-Oct-17 02:31N 51°20' E 004°17'0 0.0
2017-Oct-17 02:01N 51°20' E 004°17'0 0.0
2017-Oct-17 01:31N 51°20' E 004°17'0 0.0
2017-Oct-17 01:01N 51°20' E 004°17'0 0.0
2017-Oct-17 00:30N 51°20' E 004°17'0 0.0
2017-Oct-17 00:01N 51°20' E 004°17'0 0.0
2017-Oct-16 23:31N 51°20' E 004°17'0 0.0
2017-Oct-16 23:01N 51°20' E 004°17'0 0.0
2017-Oct-16 22:30N 51°20' E 004°17'0 0.0
2017-Oct-16 22:01N 51°20' E 004°17'0 0.0
2017-Oct-16 21:30N 51°20' E 004°17'0 0.0
2017-Oct-16 21:01N 51°20' E 004°17'0 0.0
2017-Oct-16 20:31N 51°20' E 004°17'0 0.0
2017-Oct-16 19:58N 51°20' E 004°17'0 0.0
2017-Oct-16 19:31N 51°20' E 004°17'0 0.0
2017-Oct-16 19:01N 51°20' E 004°17'0 0.0
2017-Oct-16 18:30N 51°20' E 004°17'0 0.0
2017-Oct-16 18:00N 51°20' E 004°17'0 0.0
2017-Oct-16 17:31N 51°20' E 004°17'0 0.0
2017-Oct-16 17:01N 51°20' E 004°17'0 0.0
2017-Oct-16 16:31N 51°20' E 004°17'0 0.0
2017-Oct-16 16:00N 51°20' E 004°17'0 0.0
2017-Oct-16 15:30N 51°20' E 004°17'0 0.0
2017-Oct-16 15:00N 51°20' E 004°17'0 0.0
2017-Oct-16 14:01N 51°20' E 004°17'0 0.0
2017-Oct-16 13:31N 51°20' E 004°17'0 0.0
2017-Oct-16 13:01N 51°20' E 004°17'0 0.0
2017-Oct-16 12:30N 51°20' E 004°17'0 0.0
2017-Oct-16 11:59N 51°20' E 004°17'0 0.0
2017-Oct-16 11:31N 51°20' E 004°17'0 0.0
2017-Oct-16 11:01N 51°20' E 004°17'0 0.0
2017-Oct-16 10:31N 51°20' E 004°17'0 0.0
2017-Oct-16 10:00N 51°20' E 004°17'0 0.0
2017-Oct-16 09:30N 51°20' E 004°17'0 0.0
2017-Oct-16 09:01N 51°20' E 004°17'0 0.0
2017-Oct-16 08:30N 51°20' E 004°17'0 0.0
2017-Oct-16 08:00N 51°20' E 004°17'0 0.0
2017-Oct-16 07:29N 51°20' E 004°17'0 0.0
2017-Oct-16 07:01N 51°20' E 004°17'0 0.0
2017-Oct-16 06:30N 51°20' E 004°17'0 0.0
2017-Oct-16 06:00N 51°20' E 004°17'0 0.0
2017-Oct-16 05:30N 51°20' E 004°17'0 0.0
2017-Oct-16 05:00N 51°20' E 004°17'0 0.0
2017-Oct-16 04:30N 51°20' E 004°17'0 0.0
2017-Oct-16 04:00N 51°20' E 004°17'0 0.0
2017-Oct-16 03:30N 51°20' E 004°17'0 0.0
2017-Oct-16 03:01N 51°20' E 004°17'0 0.0
2017-Oct-16 02:31N 51°20' E 004°17'0 0.0
2017-Oct-16 02:00N 51°20' E 004°17'0 0.0
2017-Oct-16 01:30N 51°20' E 004°17'0 0.0
2017-Oct-16 01:01N 51°20' E 004°17'0 0.0
2017-Oct-16 00:31N 51°20' E 004°17'0 0.0
2017-Oct-16 00:01N 51°20' E 004°17'0 0.0
2017-Oct-15 23:27N 51°20' E 004°17'0 0.7
2017-Oct-15 23:00N 51°20' E 004°16'4 8.9
2017-Oct-15 22:31N 51°24' E 004°12'612.3
2017-Oct-15 22:00N 51°24' E 004°02'4 8.0
2017-Oct-15 21:30N 51°22' E 003°56'714.4
2017-Oct-15 21:00N 51°22' E 003°44'611.6
2017-Oct-15 20:30N 51°26' E 003°38'713.4
2017-Oct-15 20:00N 51°25' E 003°27'1020.1
2017-Oct-15 19:31N 51°24' E 003°11'918.3
2017-Oct-15 19:00N 51°25' E 002°56'612.8
2017-Oct-15 18:30N 51°24' E 002°46'510.3
2017-Oct-15 18:00N 51°22' E 002°39'3 6.9
2017-Oct-15 17:30N 51°24' E 002°35'1 1.3
2017-Oct-15 17:00N 51°25' E 002°34'0 0.0
2017-Oct-15 16:27N 51°25' E 002°34'0 0.1
2017-Oct-15 16:00N 51°25' E 002°34'0 0.2
2017-Oct-15 15:30N 51°25' E 002°34'0 0.2
2017-Oct-15 14:45N 51°25' E 002°34'3 4.0
2017-Oct-15 14:00N 51°24' E 002°30'315.3 220 / 101019.810.8 20.014.917.0
2017-Oct-15 13:48N 51°25' E 002°34'0 0.1
2017-Oct-15 13:30N 51°25' E 002°34'0 0.0
2017-Oct-15 12:48N 51°25' E 002°34'0 0.0
2017-Oct-15 12:24N 51°25' E 002°34'0 0.0
2017-Oct-15 11:54N 51°25' E 002°34'0 0.0
2017-Oct-15 11:18N 51°25' E 002°34'0 0.0
2017-Oct-15 11:00N 51°25' E 002°34'0 0.0
2017-Oct-15 10:30N 51°25' E 002°34'0 0.0
2017-Oct-15 10:00N 51°25' E 002°34'0 0.0
2017-Oct-15 09:30N 51°25' E 002°35'0 0.0
2017-Oct-15 09:00N 51°25' E 002°34'0 0.0
2017-Oct-15 08:30N 51°25' E 002°34'0 0.0
2017-Oct-15 07:57N 51°25' E 002°34'0 0.1
2017-Oct-15 07:30N 51°25' E 002°34'0 0.0
2017-Oct-15 07:00N 51°25' E 002°34'0 0.3
2017-Oct-15 06:27N 51°25' E 002°34'0 0.2
2017-Oct-15 06:00N 51°25' E 002°34'0 0.1
2017-Oct-15 05:30N 51°25' E 002°34'0 0.0
2017-Oct-15 05:00N 51°25' E 002°34'0 0.0
2017-Oct-15 04:27N 51°25' E 002°34'0 0.0
2017-Oct-15 03:57N 51°25' E 002°34'0 0.0
2017-Oct-15 03:30N 51°25' E 002°34'0 0.0
2017-Oct-15 02:57N 51°25' E 002°34'0 0.0
2017-Oct-15 02:30N 51°25' E 002°34'0 0.1
2017-Oct-15 02:00N 51°25' E 002°34'0 0.1
2017-Oct-15 01:30N 51°25' E 002°34'0 0.1
2017-Oct-15 01:00N 51°25' E 002°34'0 0.1
2017-Oct-15 00:30N 51°25' E 002°34'0 0.0
2017-Oct-15 00:00N 51°25' E 002°34'0 0.0
2017-Oct-14 23:30N 51°25' E 002°34'0 0.1
2017-Oct-14 22:48N 51°25' E 002°34'0 0.0
2017-Oct-14 22:30N 51°25' E 002°34'0 0.0
2017-Oct-14 21:57N 51°25' E 002°34'0 0.0
2017-Oct-14 21:30N 51°25' E 002°34'0 0.0
2017-Oct-14 20:54N 51°25' E 002°34'0 0.0
2017-Oct-14 20:30N 51°25' E 002°34'0 0.0
2017-Oct-14 20:00N 51°25' E 002°34'0 0.0
2017-Oct-14 19:30N 51°25' E 002°34'0 0.0
2017-Oct-14 18:57N 51°25' E 002°35'0 0.1
2017-Oct-14 18:24N 51°25' E 002°35'0 0.2
2017-Oct-14 18:00N 51°25' E 002°34'0 0.2
2017-Oct-14 17:30N 51°25' E 002°34'0 0.1
2017-Oct-14 16:51N 51°25' E 002°34'0 0.0
2017-Oct-14 16:15N 51°25' E 002°34'0 0.0
2017-Oct-14 15:57N 51°25' E 002°34'0 0.0
2017-Oct-14 15:30N 51°25' E 002°34'0 0.1
2017-Oct-14 14:48N 51°25' E 002°34'0 0.4
2017-Oct-14 14:30N 51°25' E 002°34'0 0.3
2017-Oct-14 14:00N 51°25' E 002°34'0 0.2
2017-Oct-14 13:27N 51°25' E 002°35'0 0.0
2017-Oct-14 13:00N 51°25' E 002°35'0 0.2
2017-Oct-14 12:30N 51°25' E 002°35'1 1.1
2017-Oct-14 12:00N 51°25' E 002°35'4 8.8
2017-Oct-14 11:30N 51°22' E 002°30'713.8
2017-Oct-14 11:00N 51°19' E 002°20'714.3
2017-Oct-14 10:30N 51°16' E 002°10'714.5
2017-Oct-14 10:00N 51°12' E 001°60'714.6
2017-Oct-14 09:30N 51°09' E 001°50'918.1
2017-Oct-14 09:00N 51°02' E 001°40'1020.2
2017-Oct-14 08:30N 50°54' E 001°30'1020.0
2017-Oct-14 08:00N 50°45' E 001°24'1019.0
2017-Oct-14 07:27N 50°37' E 001°13'2118.7
2017-Oct-14 06:20N 50°26' E 000°45'1718.9
2017-Oct-14 05:25N 50°21' E 000°19'1719.4
2017-Oct-14 04:32N 50°16' W 000°07'219.7
2017-Oct-14 04:26N 50°15' W 000°09'1420.0
2017-Oct-14 03:44N 50°12' W 000°30'520.3
2017-Oct-14 03:30N 50°10' W 000°38'1020.6
2017-Oct-14 03:01N 50°07' W 000°53'1020.7
2017-Oct-14 02:30N 50°04' W 001°08'1121.1
2017-Oct-14 02:00N 50°02' W 001°24'1020.8
2017-Oct-14 01:31N 50°00' W 001°40'1020.7
2017-Oct-14 01:01N 49°59' W 001°56'1020.2
2017-Oct-14 00:30N 49°57' W 002°11'5 9.8
2017-Oct-14 00:00N 49°54' W 002°18'1043.4 200 / 141025.210.8 16.014.217.0
2017-Oct-13 23:46N 49°53' W 002°33'1019.2
2017-Oct-13 23:14N 49°50' W 002°48'419.1
2017-Oct-13 23:00N 49°49' W 002°55'1019.0
2017-Oct-13 22:30N 49°47' W 003°09'919.0
2017-Oct-13 22:00N 49°45' W 003°23'1118.6
2017-Oct-13 21:24N 49°45' W 003°41'718.8
2017-Oct-13 21:00N 49°44' W 003°52'1318.7
2017-Oct-13 20:18N 49°42' W 004°13'718.5
2017-Oct-13 19:55N 49°41' W 004°23'818.5
2017-Oct-13 19:29N 49°41' W 004°36'1318.5
2017-Oct-13 18:46N 49°39' W 004°56'518.5
2017-Oct-13 18:29N 49°39' W 005°04'1318.4
2017-Oct-13 17:47N 49°38' W 005°24'2618.4
2017-Oct-13 16:21N 49°38' W 006°05'3918.1
2017-Oct-13 14:12N 49°32' W 007°04'3516.0
2017-Oct-13 12:00N 49°18' W 007°54'6020.0 220 / 201021.1 5.4 17.017.017.0
2017-Oct-13 09:00N 49°06' W 009°24'8126.9 230 / 191019.5 2.2 17.015.317.0
2017-Oct-13 06:00N 48°48' W 011°24'9115.1 220 / 171017.610.8 17.015.317.0
2017-Oct-13 00:00N 48°24' W 013°36'5527.5 220 / 221015.2 5.4 17.017.017.0
2017-Oct-12 22:00N 48°06' W 014°54'6917.3 230 / 221014.2 2.2 18.016.317.0
2017-Oct-12 18:00N 47°54' W 016°36'11318.9 220 / 231012.6 5.4 18.915.719.0
2017-Oct-12 12:00N 47°24' W 019°18'6431.8 220 / 251010.8 5.4 17.017.017.0
2017-Oct-12 10:00N 47°06' W 020°48'35518.7 230 / 201009.6 2.2 18.018.017.0
2017-Oct-11 15:00N 45°36' W 029°06'17419.3 140 / 151009.510.8 18.016.317.0
2017-Oct-11 06:00N 44°54' W 033°06'5819.4 070 / 121012.710.8 17.915.719.0
2017-Oct-11 03:00N 44°36' W 034°24'5719.0 060 / 31013.810.8 18.014.619.0
2017-Oct-11 00:00N 44°24' W 035°42'12020.0 350 / 151016.0 5.4 17.013.519.0
2017-Oct-10 18:00N 43°54' W 038°24'11318.8 310 / 141014.810.8 20.015.819.0
2017-Oct-10 12:00N 43°24' W 040°54'6722.2 290 / 151017.010.8 20.016.723.0
2017-Oct-10 09:00N 43°12' W 042°24'6019.9 320 / 141017.110.8 19.418.325.0
2017-Oct-10 06:00N 42°54' W 043°42'6421.4 310 / 201017.6 19.513.425.0
2017-Oct-10 03:00N 42°36' W 045°06'6321.0 270 / 151019.210.8 21.019.422.0
2017-Oct-10 00:00N 42°24' W 046°30'15321.8 260 / 181022.0 5.4 20.018.424.0
2017-Oct-09 17:00N 41°42' W 049°48'10220.3 220 / 181023.710.8 23.019.922.0
2017-Oct-09 12:00N 41°18' W 052°00'13021.7 200 / 151025.0 5.4 20.016.718.0
2017-Oct-09 06:00N 40°48' W 054°48'1919.1 200 / 151024.810.8 22.020.526.0
2017-Oct-09 05:00N 40°42' W 055°12'32821.9 200 / 161024.910.8 22.020.524.0
2017-Oct-08 14:00N 39°18' W 062°06'   180 / 151024.310.8 27.021.026.0

Dump ship's entire track history